createdAt,value
2023-04-02T00:01:26.609Z,14.73
2023-04-02T00:11:33.154Z,14.72
2023-04-02T00:14:02.581Z,14.71
2023-04-02T00:16:30.646Z,14.71
2023-04-02T00:19:05.342Z,14.72
2023-04-02T00:21:36.184Z,14.70
2023-04-02T00:24:14.902Z,14.73
2023-04-02T00:26:46.685Z,14.73
2023-04-02T00:29:16.114Z,14.73
2023-04-02T00:31:46.604Z,14.73
2023-04-02T00:34:20.794Z,14.74
2023-04-02T00:36:50.290Z,14.73
2023-04-02T00:39:24.595Z,14.74
2023-04-02T00:41:58.697Z,14.73
2023-04-02T00:44:32.709Z,14.74
2023-04-02T00:47:04.728Z,14.73
2023-04-02T00:49:37.104Z,14.73
2023-04-02T00:52:07.379Z,14.74
2023-04-02T00:54:41.078Z,14.74
2023-04-02T00:57:17.930Z,14.74
2023-04-02T00:59:55.004Z,14.73
2023-04-02T01:02:29.545Z,14.73
2023-04-02T01:04:59.192Z,14.74
2023-04-02T01:07:54.709Z,14.73
2023-04-02T01:10:42.871Z,14.72
2023-04-02T01:13:24.330Z,14.71
2023-04-02T01:15:58.981Z,14.72
2023-04-02T01:18:50.335Z,14.72
2023-04-02T01:21:32.382Z,14.71
2023-04-02T01:24:05.185Z,14.71
2023-04-02T01:26:45.732Z,14.71
2023-04-02T01:29:16.526Z,14.71
2023-04-02T01:31:46.782Z,14.72
2023-04-02T01:34:16.847Z,14.71
2023-04-02T01:36:55.051Z,14.71
2023-04-02T01:39:39.883Z,14.71
2023-04-02T01:42:15.974Z,14.72
2023-04-02T01:44:49.346Z,14.71
2023-04-02T01:47:20.020Z,14.71
2023-04-02T01:49:48.558Z,14.70
2023-04-02T01:52:19.548Z,14.71
2023-04-02T01:54:48.784Z,14.71
2023-04-02T01:57:17.486Z,14.71
2023-04-02T01:59:47.019Z,14.71
2023-04-02T02:02:15.272Z,14.72
2023-04-02T02:04:43.087Z,14.72
2023-04-02T02:07:15.818Z,14.72
2023-04-02T02:09:44.544Z,14.72
2023-04-02T02:12:15.020Z,14.72
2023-04-02T02:14:49.714Z,14.73
2023-04-02T02:17:21.457Z,14.74
2023-04-02T02:19:52.967Z,14.75
2023-04-02T02:22:28.334Z,14.73
2023-04-02T02:24:57.176Z,14.74
2023-04-02T02:27:48.001Z,14.74
2023-04-02T02:30:21.087Z,14.73
2023-04-02T02:32:56.376Z,14.73
2023-04-02T02:35:29.785Z,14.72
2023-04-02T02:38:02.583Z,14.72
2023-04-02T02:40:37.677Z,14.72
2023-04-02T02:43:11.364Z,14.72
2023-04-02T02:45:42.466Z,14.71
2023-04-02T02:48:14.898Z,14.71
2023-04-02T02:50:43.664Z,14.70
2023-04-02T02:53:18.319Z,14.70
2023-04-02T02:55:46.729Z,14.70
2023-04-02T02:58:19.313Z,14.70
2023-04-02T03:00:49.158Z,14.69
2023-04-02T03:03:21.834Z,14.69
2023-04-02T03:05:53.748Z,14.69
2023-04-02T03:08:28.481Z,14.68
2023-04-02T03:11:02.049Z,14.68
2023-04-02T03:13:35.278Z,14.68
2023-04-02T03:16:12.332Z,14.67
2023-04-02T03:18:46.339Z,14.66
2023-04-02T03:21:26.289Z,14.68
2023-04-02T03:23:58.488Z,14.67
2023-04-02T03:26:32.709Z,14.67
2023-04-02T03:29:04.205Z,14.67
2023-04-02T03:31:38.903Z,14.68
2023-04-02T03:34:13.793Z,14.67
2023-04-02T03:36:48.872Z,14.68
2023-04-02T03:39:22.505Z,14.69
2023-04-02T03:41:53.884Z,14.70
2023-04-02T03:44:27.101Z,14.69
2023-04-02T03:46:59.121Z,14.70
2023-04-02T03:49:32.705Z,14.71
2023-04-02T03:52:04.926Z,14.71
2023-04-02T03:54:33.218Z,14.70
2023-04-02T03:57:01.894Z,14.71
2023-04-02T03:59:38.145Z,14.71
2023-04-02T04:02:17.530Z,14.70
2023-04-02T04:04:47.360Z,14.71
2023-04-02T04:07:22.699Z,14.71
2023-04-02T04:09:53.502Z,14.72
2023-04-02T04:12:31.482Z,14.72
2023-04-02T04:15:05.525Z,14.72
2023-04-02T04:17:51.567Z,14.73
2023-04-02T04:20:23.886Z,14.72
2023-04-02T04:22:55.796Z,14.73
2023-04-02T04:25:29.572Z,14.73
2023-04-02T04:28:05.891Z,14.74
2023-04-02T04:30:42.265Z,14.73
2023-04-02T04:33:23.107Z,14.74
2023-04-02T04:35:55.269Z,14.75
2023-04-02T04:38:32.912Z,14.74
2023-04-02T04:41:05.670Z,14.74
2023-04-02T04:43:46.461Z,14.73
2023-04-02T04:46:19.248Z,14.74
2023-04-02T04:48:55.247Z,14.74
2023-04-02T04:51:26.355Z,14.74
2023-04-02T04:53:56.193Z,14.73
2023-04-02T04:56:27.317Z,14.74
2023-04-02T04:59:00.297Z,14.74
2023-04-02T05:01:34.590Z,14.74
2023-04-02T05:04:11.562Z,14.74
2023-04-02T05:06:44.004Z,14.74
2023-04-02T05:09:18.807Z,14.74
2023-04-02T05:11:50.106Z,14.76
2023-04-02T05:14:25.686Z,14.76
2023-04-02T05:17:00.455Z,14.76
2023-04-02T05:19:38.066Z,14.76
2023-04-02T05:22:16.873Z,14.77
2023-04-02T05:24:52.109Z,14.77
2023-04-02T05:27:32.912Z,14.77
2023-04-02T05:30:08.192Z,14.77
2023-04-02T05:32:38.806Z,14.77
2023-04-02T05:35:15.415Z,14.77
2023-04-02T05:37:43.604Z,14.77
2023-04-02T05:40:16.407Z,14.77
2023-04-02T05:42:48.952Z,14.77
2023-04-02T05:45:24.180Z,14.77
2023-04-02T05:47:57.217Z,14.77
2023-04-02T05:50:30.448Z,14.78
2023-04-02T05:53:04.591Z,14.76
2023-04-02T05:55:42.807Z,14.76
2023-04-02T06:00:59.803Z,14.76
2023-04-02T06:07:52.201Z,14.76
2023-04-02T06:11:30.754Z,14.70
2023-04-02T06:36:53.571Z,14.61
2023-04-02T06:54:26.795Z,14.49
2023-04-02T07:05:08.704Z,14.46
2023-04-02T07:08:20.695Z,14.45
2023-04-02T07:30:25.719Z,14.44
2023-04-02T07:44:37.787Z,14.52
2023-04-02T08:13:15.202Z,13.51
2023-04-02T08:16:20.404Z,13.28
2023-04-02T08:18:48.434Z,13.20
2023-04-02T08:21:16.759Z,13.17
2023-04-02T08:23:44.535Z,13.12
2023-04-02T08:26:18.757Z,13.12
2023-04-02T08:28:46.510Z,13.09
2023-04-02T08:31:14.183Z,13.08
2023-04-02T08:33:43.108Z,13.07
2023-04-02T08:36:17.123Z,13.06
2023-04-02T08:38:44.873Z,13.05
2023-04-02T08:41:21.532Z,13.04
2023-04-02T08:44:10.036Z,13.06
2023-04-02T08:46:44.488Z,13.06
2023-04-02T08:49:17.766Z,13.28
2023-04-02T08:51:47.022Z,13.58
2023-04-02T08:54:22.198Z,13.83
2023-04-02T08:56:56.304Z,14.01
2023-04-02T08:59:32.755Z,14.16
2023-04-02T09:02:06.981Z,14.28
2023-04-02T09:04:36.906Z,14.38
2023-04-02T09:07:04.970Z,14.43
2023-04-02T09:09:38.461Z,14.51
2023-04-02T09:12:15.436Z,14.53
2023-04-02T09:14:45.749Z,14.57
2023-04-02T09:17:19.136Z,14.59
2023-04-02T09:19:55.431Z,14.62
2023-04-02T09:22:25.249Z,14.63
2023-04-02T09:24:54.026Z,14.63
2023-04-02T09:27:23.957Z,14.64
2023-04-02T09:29:54.953Z,14.65
2023-04-02T09:32:40.800Z,14.66
2023-04-02T09:35:24.798Z,14.66
2023-04-02T09:38:22.384Z,14.67
2023-04-02T09:40:52.018Z,14.67
2023-04-02T09:43:21.479Z,14.68
2023-04-02T09:45:58.928Z,14.68
2023-04-02T09:48:30.970Z,14.68
2023-04-02T09:51:12.480Z,14.67
2023-04-02T09:53:42.573Z,14.67
2023-04-02T09:56:13.830Z,14.68
2023-04-02T09:58:44.043Z,14.68
2023-04-02T10:01:29.932Z,14.69
2023-04-02T10:03:59.261Z,14.69
2023-04-02T10:06:29.962Z,14.69
2023-04-02T10:08:58.318Z,14.71
2023-04-02T10:11:36.442Z,14.69
2023-04-02T10:14:16.831Z,14.70
2023-04-02T10:16:48.646Z,14.71
2023-04-02T10:19:23.725Z,14.72
2023-04-02T10:21:54.887Z,14.72
2023-04-02T10:24:22.585Z,14.72
2023-04-02T10:26:59.022Z,14.72
2023-04-02T10:29:45.643Z,14.72
2023-04-02T10:32:17.738Z,14.72
2023-04-02T10:34:50.661Z,14.73
2023-04-02T10:37:47.947Z,14.72
2023-04-02T10:40:22.068Z,14.73
2023-04-02T10:42:55.113Z,14.73
2023-04-02T10:45:37.277Z,14.73
2023-04-02T10:48:15.651Z,14.73
2023-04-02T10:50:51.740Z,14.73
2023-04-02T10:53:23.088Z,14.73
2023-04-02T10:55:54.958Z,14.72
2023-04-02T10:58:26.283Z,14.73
2023-04-02T11:00:59.397Z,14.72
2023-04-02T11:03:36.594Z,14.73
2023-04-02T11:06:12.156Z,14.72
2023-04-02T11:08:43.654Z,14.74
2023-04-02T11:11:15.759Z,14.71
2023-04-02T11:13:53.354Z,14.73
2023-04-02T11:16:21.464Z,14.72
2023-04-02T11:19:21.422Z,14.72
2023-04-02T11:21:58.548Z,14.71
2023-04-02T11:24:39.644Z,14.73
2023-04-02T11:27:16.086Z,14.73
2023-04-02T11:29:45.566Z,14.73
2023-04-02T11:32:42.398Z,14.74
2023-04-02T11:35:27.435Z,14.74
2023-04-02T11:37:58.865Z,14.74
2023-04-02T11:40:49.312Z,14.75
2023-04-02T11:43:51.931Z,14.76
2023-04-02T11:46:48.505Z,14.76
2023-04-02T11:49:35.802Z,14.77
2023-04-02T11:52:11.946Z,14.77
2023-04-02T11:54:40.584Z,14.78
2023-04-02T11:57:22.712Z,14.79
2023-04-02T12:00:06.771Z,14.78
2023-04-02T12:02:42.754Z,14.78
2023-04-02T12:05:27.683Z,14.79
2023-04-02T12:08:19.116Z,14.79
2023-04-02T12:11:00.415Z,14.79
2023-04-02T12:41:55.575Z,15.00
2023-04-02T12:44:38.877Z,15.24
2023-04-02T12:47:08.434Z,15.31
2023-04-02T12:49:39.595Z,15.29
2023-04-02T12:52:09.949Z,15.23
2023-04-02T12:54:45.042Z,15.18
2023-04-02T12:57:39.174Z,15.10
2023-04-02T13:00:40.811Z,15.04
2023-04-02T13:09:45.352Z,14.94
2023-04-02T13:12:46.571Z,14.91
2023-04-02T13:19:04.465Z,14.88
2023-04-02T15:01:44.660Z,14.81
2023-04-02T15:04:31.926Z,14.81
2023-04-02T15:07:05.828Z,14.81
2023-04-02T15:09:38.277Z,14.81
2023-04-02T15:12:11.735Z,14.82
2023-04-02T15:14:45.157Z,14.83
2023-04-02T15:17:13.301Z,14.82
2023-04-02T15:19:42.271Z,14.82
2023-04-02T15:22:24.419Z,14.82
2023-04-02T15:24:59.502Z,14.83
2023-04-02T15:27:37.875Z,14.82
2023-04-02T15:30:12.851Z,14.83
2023-04-02T15:32:42.433Z,14.83
2023-04-02T15:35:23.067Z,14.83
2023-04-02T15:38:00.454Z,14.82
2023-04-02T15:40:41.026Z,14.82
2023-04-02T15:43:19.819Z,14.81
2023-04-02T15:45:54.479Z,14.81
2023-04-02T15:48:37.443Z,14.81
2023-04-02T15:51:20.306Z,14.82
2023-04-02T15:53:58.245Z,14.82
2023-04-02T15:56:35.968Z,14.81
2023-04-02T15:59:26.742Z,14.81
2023-04-02T16:02:01.586Z,14.82
2023-04-02T16:04:51.134Z,14.81
2023-04-02T16:07:47.999Z,14.82
2023-04-02T16:10:30.630Z,14.81
2023-04-02T16:13:01.788Z,14.81
2023-04-02T16:15:36.170Z,14.82
2023-04-02T16:18:12.442Z,14.80
2023-04-02T16:20:44.541Z,14.81
2023-04-02T16:23:16.419Z,14.80
2023-04-02T16:25:56.577Z,14.81
2023-04-02T16:28:28.319Z,14.82
2023-04-02T16:31:03.311Z,14.81
2023-04-02T16:33:56.657Z,14.81
2023-04-02T16:36:34.750Z,14.82
2023-04-02T16:39:13.817Z,14.81
2023-04-02T16:41:53.247Z,14.82
2023-04-02T16:44:32.328Z,14.81
2023-04-02T16:47:14.788Z,14.82
2023-04-02T16:49:48.052Z,14.82
2023-04-02T16:52:29.678Z,14.84
2023-04-02T16:55:11.770Z,14.83
2023-04-02T16:57:49.113Z,14.83
2023-04-02T17:00:24.692Z,14.83
2023-04-02T17:03:08.552Z,14.83
2023-04-02T17:05:52.115Z,14.83
2023-04-02T17:08:23.866Z,14.84
2023-04-02T17:10:58.333Z,14.84
2023-04-02T17:13:29.776Z,14.83
2023-04-02T17:16:05.777Z,14.84
2023-04-02T17:18:35.813Z,14.84
2023-04-02T17:21:06.959Z,14.85
2023-04-02T17:23:55.167Z,14.83
2023-04-02T17:26:28.865Z,14.84
2023-04-02T17:28:58.421Z,14.84
2023-04-02T17:31:30.637Z,14.85
2023-04-02T17:33:58.548Z,14.84
2023-04-02T17:36:35.914Z,14.87
2023-04-02T17:39:16.743Z,14.86
2023-04-02T17:41:53.156Z,14.86
2023-04-02T17:44:36.063Z,14.88
2023-04-02T17:47:16.035Z,14.89
2023-04-02T17:49:51.561Z,14.90
2023-04-02T17:52:25.837Z,14.91
2023-04-02T17:55:03.356Z,14.91
2023-04-02T17:57:49.890Z,14.93
2023-04-02T18:00:26.570Z,14.92
2023-04-02T18:03:12.285Z,14.92
2023-04-02T18:05:46.982Z,14.93
2023-04-02T18:08:25.834Z,14.93
2023-04-02T18:11:05.580Z,14.92
2023-04-02T18:13:38.459Z,14.94
2023-04-02T18:16:21.913Z,14.94
2023-04-02T18:19:10.840Z,14.96
2023-04-02T18:21:48.941Z,14.96
2023-04-02T18:24:39.373Z,14.97
2023-04-02T18:27:23.684Z,14.96
2023-04-02T18:37:02.186Z,14.99
2023-04-02T18:39:40.396Z,14.98
2023-04-02T18:42:17.555Z,14.97
2023-04-02T18:44:59.428Z,14.97
2023-04-02T18:47:36.071Z,14.95
2023-04-02T18:50:15.807Z,14.96
2023-04-02T18:52:43.845Z,14.95
2023-04-02T18:55:16.761Z,14.96
2023-04-02T18:57:47.642Z,14.95
2023-04-02T19:00:26.575Z,14.94
2023-04-02T19:03:01.055Z,14.94
2023-04-02T19:05:37.718Z,14.94
2023-04-02T19:08:12.542Z,14.94
2023-04-02T19:10:44.821Z,14.94
2023-04-02T19:13:17.366Z,14.95
2023-04-02T19:15:59.033Z,14.93
2023-04-02T19:18:35.535Z,14.94
2023-04-02T19:21:12.274Z,14.92
2023-04-02T19:23:54.841Z,14.93
2023-04-02T19:26:28.613Z,14.92
2023-04-02T19:29:06.693Z,14.92
2023-04-02T19:31:50.123Z,14.92
2023-04-02T19:34:26.871Z,14.93
2023-04-02T19:37:00.482Z,14.92
2023-04-02T19:40:04.522Z,14.91
2023-04-02T19:42:54.181Z,14.92
2023-04-02T19:45:32.652Z,14.92
2023-04-02T19:48:10.603Z,14.92
2023-04-02T19:50:38.646Z,14.92
2023-04-02T19:53:06.365Z,14.93
2023-04-02T19:55:34.511Z,14.93
2023-04-02T19:58:17.267Z,14.92
2023-04-02T20:00:47.242Z,14.92
2023-04-02T20:03:16.221Z,14.93
2023-04-02T20:05:43.884Z,14.93
2023-04-02T20:08:11.538Z,14.94
2023-04-02T20:10:39.329Z,14.94
2023-04-02T20:13:07.169Z,14.92
2023-04-02T20:15:36.102Z,14.92
2023-04-02T20:18:03.923Z,14.95
2023-04-02T20:20:33.025Z,14.91
2023-04-02T20:23:00.730Z,14.83
2023-04-02T20:25:28.334Z,14.72
2023-04-02T20:27:56.061Z,14.64
2023-04-02T20:30:23.844Z,14.56
2023-04-02T20:32:51.588Z,14.50
2023-04-02T20:35:19.268Z,14.41
2023-04-02T20:37:48.176Z,14.36
2023-04-02T20:40:15.964Z,14.35
2023-04-02T20:42:43.574Z,14.23
2023-04-02T20:45:11.824Z,14.18
2023-04-02T20:47:39.643Z,14.18
2023-04-02T20:50:08.485Z,14.07
2023-04-02T20:52:36.977Z,14.05
2023-04-02T20:55:07.228Z,14.03
2023-04-02T20:57:34.992Z,14.00
2023-04-02T21:00:05.787Z,13.98
2023-04-02T21:02:33.425Z,13.93
2023-04-02T21:05:01.150Z,13.91
2023-04-02T21:07:29.174Z,13.90
2023-04-02T21:09:57.163Z,13.90
2023-04-02T21:12:26.158Z,13.91
2023-04-02T21:14:57.273Z,13.88
2023-04-02T21:17:25.792Z,13.91
2023-04-02T21:19:53.424Z,13.89
2023-04-02T21:22:21.062Z,13.91
2023-04-02T21:24:48.762Z,13.85
2023-04-02T21:27:16.755Z,13.84
2023-04-02T21:29:45.741Z,13.84
2023-04-02T21:32:21.224Z,13.85
2023-04-02T21:34:49.530Z,13.83
2023-04-02T21:37:17.122Z,13.79
2023-04-02T21:39:44.720Z,13.72
2023-04-02T21:42:13.810Z,13.73
2023-04-02T21:44:41.451Z,13.71
2023-04-02T21:47:10.672Z,13.69
2023-04-02T21:49:38.325Z,13.70
2023-04-02T21:52:06.162Z,13.70
2023-04-02T21:54:33.803Z,13.69
2023-04-02T21:57:01.431Z,13.68
2023-04-02T21:59:29.061Z,13.66
2023-04-02T22:01:56.822Z,13.62
2023-04-02T22:04:28.427Z,13.63
2023-04-02T22:06:56.145Z,13.60
2023-04-02T22:09:26.140Z,13.62
2023-04-02T22:11:55.553Z,13.60
2023-04-02T22:14:23.410Z,13.53
2023-04-02T22:16:51.829Z,13.50
2023-04-02T22:19:19.688Z,13.52
2023-04-02T22:21:48.708Z,13.47
2023-04-02T22:24:19.193Z,13.48
2023-04-02T22:26:47.106Z,13.49
2023-04-02T22:29:15.084Z,13.49
2023-04-02T22:31:42.730Z,13.51
2023-04-02T22:34:10.449Z,13.52
2023-04-02T22:36:38.106Z,13.50
2023-04-02T22:39:10.336Z,13.52
2023-04-02T22:41:38.502Z,13.55
2023-04-02T22:44:06.635Z,13.51
2023-04-02T22:46:34.660Z,13.50
2023-04-02T22:49:02.539Z,13.45
2023-04-02T22:51:30.776Z,13.41
2023-04-02T22:53:58.579Z,13.41
2023-04-02T22:56:31.814Z,13.46
2023-04-02T22:58:59.921Z,13.58
2023-04-02T23:01:29.625Z,13.70
2023-04-02T23:03:57.398Z,13.80
2023-04-02T23:06:26.051Z,13.88
2023-04-02T23:08:54.005Z,13.94
2023-04-02T23:11:24.855Z,13.99
2023-04-02T23:13:55.877Z,14.05
2023-04-02T23:16:24.371Z,14.08
2023-04-02T23:18:52.430Z,14.11
2023-04-02T23:21:21.383Z,14.16
2023-04-02T23:23:50.459Z,14.18
2023-04-02T23:26:19.424Z,14.20
2023-04-02T23:28:47.064Z,14.21
2023-04-02T23:31:17.837Z,14.22
2023-04-02T23:33:45.825Z,14.25
2023-04-02T23:36:16.241Z,14.26
2023-04-02T23:38:43.992Z,14.26
2023-04-02T23:41:14.781Z,14.27
2023-04-02T23:43:42.399Z,14.28
2023-04-02T23:46:10.425Z,14.30
2023-04-02T23:48:39.461Z,14.30
2023-04-02T23:51:07.505Z,14.31
2023-04-02T23:53:35.578Z,14.32
2023-04-02T23:56:03.201Z,14.32
2023-04-02T23:58:30.837Z,14.34
